createdAt,value
2018-05-17T00:02:21.371Z,8.67
2018-05-17T00:04:47.634Z,6.43
2018-05-17T00:07:13.846Z,7.53
2018-05-17T00:09:40.066Z,7.90
2018-05-17T00:12:06.297Z,7.27
2018-05-17T00:14:32.467Z,7.83
2018-05-17T00:16:58.665Z,7.73
2018-05-17T00:19:24.892Z,8.43
2018-05-17T00:21:51.111Z,8.00
2018-05-17T00:24:17.339Z,7.87
2018-05-17T00:26:43.518Z,8.07
2018-05-17T00:29:10.539Z,8.17
2018-05-17T00:31:36.809Z,8.20
2018-05-17T00:34:03.085Z,8.43
2018-05-17T00:36:30.035Z,8.07
2018-05-17T00:38:56.210Z,8.50
2018-05-17T00:41:22.447Z,8.13
2018-05-17T00:43:48.746Z,7.77
2018-05-17T00:46:15.681Z,8.67
2018-05-17T00:48:41.897Z,9.43
2018-05-17T00:51:08.961Z,8.30
2018-05-17T00:53:35.169Z,8.83
2018-05-17T00:56:01.403Z,8.33
2018-05-17T00:58:27.941Z,8.03
2018-05-17T01:00:54.186Z,8.90
2018-05-17T01:03:20.405Z,8.37
2018-05-17T01:05:46.638Z,9.10
2018-05-17T01:08:12.868Z,9.20
2018-05-17T01:10:39.096Z,9.17
2018-05-17T01:13:05.302Z,8.57
2018-05-17T01:15:33.264Z,8.70
2018-05-17T01:17:59.443Z,8.50
2018-05-17T01:20:25.608Z,8.60
2018-05-17T01:22:51.813Z,7.57
2018-05-17T01:25:18.077Z,9.10
2018-05-17T01:27:44.274Z,8.63
2018-05-17T01:30:10.813Z,9.07
2018-05-17T01:32:37.058Z,10.13
2018-05-17T01:35:03.303Z,9.37
2018-05-17T01:37:48.268Z,9.30
2018-05-17T01:40:14.463Z,9.93
2018-05-17T01:42:41.446Z,9.57
2018-05-17T01:45:07.658Z,9.40
2018-05-17T01:47:33.845Z,10.30
2018-05-17T01:50:00.104Z,9.53
2018-05-17T01:52:26.329Z,9.13
2018-05-17T01:54:52.522Z,10.07
2018-05-17T01:57:19.658Z,10.77
2018-05-17T01:59:45.883Z,10.97
2018-05-17T02:02:12.198Z,10.47
2018-05-17T02:04:39.143Z,10.50
2018-05-17T02:07:06.169Z,10.10
2018-05-17T02:09:32.373Z,11.37
2018-05-17T02:11:58.649Z,10.87
2018-05-17T02:14:25.649Z,10.77
2018-05-17T02:16:52.241Z,10.80
2018-05-17T02:19:18.559Z,10.43
2018-05-17T02:21:44.733Z,10.43
2018-05-17T02:24:10.945Z,11.00
2018-05-17T02:26:37.148Z,10.93
2018-05-17T02:29:03.378Z,10.20
2018-05-17T02:31:29.566Z,10.90
2018-05-17T02:33:55.792Z,11.53
2018-05-17T02:36:21.995Z,11.43
2018-05-17T02:38:48.223Z,10.97
2018-05-17T02:41:14.526Z,11.73
2018-05-17T02:43:40.773Z,11.57
2018-05-17T02:46:07.022Z,12.50
2018-05-17T02:48:40.242Z,12.87
2018-05-17T02:51:06.471Z,12.80
2018-05-17T02:53:32.681Z,11.73
2018-05-17T02:55:58.877Z,12.90
2018-05-17T02:58:25.088Z,12.23
2018-05-17T03:00:51.282Z,12.60
2018-05-17T03:03:17.522Z,12.97
2018-05-17T03:05:43.767Z,13.13
2018-05-17T03:08:10.042Z,13.07
2018-05-17T03:10:36.284Z,12.83
2018-05-17T03:13:02.529Z,13.43
2018-05-17T03:15:29.502Z,13.17
2018-05-17T03:17:56.067Z,13.07
2018-05-17T03:20:22.300Z,12.77
2018-05-17T03:22:48.534Z,12.90
2018-05-17T03:25:14.758Z,13.63
2018-05-17T03:27:40.968Z,13.50
2018-05-17T03:30:07.891Z,13.73
2018-05-17T03:32:34.085Z,12.63
2018-05-17T03:35:00.306Z,12.63
2018-05-17T03:37:26.493Z,13.67
2018-05-17T03:39:52.713Z,13.07
2018-05-17T03:42:19.653Z,13.70
2018-05-17T03:44:45.885Z,13.77
2018-05-17T03:47:12.090Z,12.60
2018-05-17T03:49:38.265Z,13.87
2018-05-17T03:52:04.469Z,12.80
2018-05-17T03:54:30.706Z,13.53
2018-05-17T03:56:56.889Z,13.70
2018-05-17T03:59:23.864Z,13.93
2018-05-17T04:02:09.477Z,13.03
2018-05-17T04:04:54.966Z,12.13
2018-05-17T04:07:21.161Z,14.77
2018-05-17T04:09:47.362Z,14.77
2018-05-17T04:12:14.355Z,13.57
2018-05-17T04:14:40.571Z,12.67
2018-05-17T04:17:06.757Z,13.93
2018-05-17T04:19:32.953Z,13.53
2018-05-17T04:21:59.165Z,13.03
2018-05-17T04:24:26.134Z,14.50
2018-05-17T04:26:52.447Z,13.50
2018-05-17T04:29:18.684Z,14.07
2018-05-17T04:31:44.952Z,14.77
2018-05-17T04:34:11.999Z,16.27
2018-05-17T04:36:38.309Z,15.20
2018-05-17T04:39:04.716Z,14.47
2018-05-17T04:41:31.005Z,15.73
2018-05-17T04:43:57.304Z,14.97
2018-05-17T04:46:23.604Z,14.90
2018-05-17T04:48:49.850Z,15.97
2018-05-17T04:51:16.892Z,14.47
2018-05-17T04:53:43.088Z,15.23
2018-05-17T04:56:09.339Z,14.20
2018-05-17T04:58:35.582Z,14.50
2018-05-17T05:01:01.818Z,15.33
2018-05-17T05:03:28.014Z,15.20
2018-05-17T05:05:54.988Z,14.40
2018-05-17T05:08:21.200Z,15.63
2018-05-17T05:10:48.872Z,15.07
2018-05-17T05:13:15.845Z,14.87
2018-05-17T05:15:42.069Z,15.10
2018-05-17T05:18:08.289Z,15.80
2018-05-17T05:20:35.334Z,14.27
2018-05-17T05:23:02.302Z,15.23
2018-05-17T05:25:28.564Z,14.07
2018-05-17T05:27:54.829Z,17.03
2018-05-17T05:30:21.706Z,15.50
2018-05-17T05:32:48.702Z,14.53
2018-05-17T05:35:14.930Z,13.60
2018-05-17T05:37:41.191Z,14.10
2018-05-17T05:40:08.166Z,15.50
2018-05-17T05:42:34.397Z,14.43
2018-05-17T05:45:00.627Z,14.60
2018-05-17T05:47:26.849Z,14.90
2018-05-17T05:49:53.314Z,14.70
2018-05-17T05:52:19.501Z,15.20
2018-05-17T05:54:45.771Z,13.33
2018-05-17T05:57:11.969Z,15.03
2018-05-17T05:59:38.183Z,13.80
2018-05-17T06:02:04.396Z,14.47
2018-05-17T06:04:31.353Z,13.43
2018-05-17T06:06:57.545Z,14.27
2018-05-17T06:09:23.767Z,14.67
2018-05-17T06:11:49.953Z,14.50
2018-05-17T06:14:16.912Z,13.47
2018-05-17T06:16:43.889Z,12.93
2018-05-17T06:19:10.089Z,13.43
2018-05-17T06:21:37.809Z,13.43
2018-05-17T06:24:04.105Z,12.80
2018-05-17T06:26:30.345Z,13.17
2018-05-17T06:28:57.394Z,12.13
2018-05-17T06:31:23.604Z,12.13
2018-05-17T06:33:49.816Z,12.70
2018-05-17T06:36:16.006Z,11.53
2018-05-17T06:38:42.230Z,13.13
2018-05-17T06:41:09.177Z,11.90
2018-05-17T06:43:35.428Z,12.77
2018-05-17T06:46:01.657Z,12.10
2018-05-17T06:48:27.882Z,12.10
2018-05-17T06:50:54.111Z,12.97
2018-05-17T06:53:20.351Z,11.73
2018-05-17T06:55:47.292Z,11.97
2018-05-17T06:58:14.226Z,10.83
2018-05-17T07:00:41.250Z,11.70
2018-05-17T07:03:07.419Z,11.50
2018-05-17T07:05:33.625Z,11.40
2018-05-17T07:07:59.833Z,11.13
2018-05-17T07:10:26.116Z,11.27
2018-05-17T07:12:52.275Z,11.10
2018-05-17T07:15:18.465Z,11.60
2018-05-17T07:17:45.661Z,11.70
2018-05-17T07:20:11.930Z,11.10
2018-05-17T07:22:38.162Z,11.83
2018-05-17T07:25:04.418Z,10.10
2018-05-17T07:27:30.651Z,10.40
2018-05-17T07:29:56.897Z,10.90
2018-05-17T07:32:24.498Z,10.83
2018-05-17T07:34:51.443Z,10.50
2018-05-17T07:37:17.634Z,10.13
2018-05-17T07:39:43.840Z,10.43
2018-05-17T07:42:10.014Z,10.43
2018-05-17T07:44:36.209Z,11.60
2018-05-17T07:47:02.392Z,10.33
2018-05-17T07:49:28.620Z,10.23
2018-05-17T07:51:54.798Z,10.07
2018-05-17T07:54:21.013Z,10.20
2018-05-17T07:56:47.953Z,9.50
2018-05-17T07:59:14.185Z,9.27
2018-05-17T08:01:41.221Z,10.03
2018-05-17T08:04:07.422Z,10.20
2018-05-17T08:06:33.670Z,9.63
2018-05-17T08:08:59.877Z,9.13
2018-05-17T08:11:26.110Z,9.40
2018-05-17T08:13:53.056Z,9.63
2018-05-17T08:16:19.998Z,9.67
2018-05-17T08:18:47.235Z,9.27
2018-05-17T08:21:13.430Z,10.10
2018-05-17T08:23:40.409Z,9.27
2018-05-17T08:26:06.636Z,8.43
2018-05-17T08:28:32.865Z,9.27
2018-05-17T08:30:59.044Z,9.07
2018-05-17T08:33:25.310Z,8.93
2018-05-17T08:35:51.537Z,8.73
2018-05-17T08:38:17.734Z,8.77
2018-05-17T08:40:43.961Z,8.73
2018-05-17T08:43:10.922Z,7.70
2018-05-17T08:45:37.181Z,7.90
2018-05-17T08:48:03.381Z,8.27
2018-05-17T08:50:29.606Z,7.63
2018-05-17T08:52:55.822Z,9.03
2018-05-17T08:55:22.020Z,8.40
2018-05-17T08:57:48.300Z,7.47
2018-05-17T09:00:14.524Z,7.80
2018-05-17T09:02:40.723Z,7.57
2018-05-17T09:05:06.897Z,7.60
2018-05-17T09:07:33.093Z,7.03
2018-05-17T09:09:59.326Z,8.07
2018-05-17T09:12:25.711Z,7.67
2018-05-17T09:14:51.929Z,6.77
2018-05-17T09:17:18.207Z,8.17
2018-05-17T09:19:45.163Z,6.30
2018-05-17T09:22:12.102Z,6.67
2018-05-17T09:24:39.063Z,5.70
2018-05-17T09:27:06.104Z,6.93
2018-05-17T09:29:32.277Z,6.27
2018-05-17T09:31:58.465Z,6.43
2018-05-17T09:34:24.654Z,7.47
2018-05-17T09:36:50.890Z,6.17
2018-05-17T09:39:17.072Z,8.30
2018-05-17T09:41:44.064Z,6.40
2018-05-17T09:44:10.278Z,6.87
2018-05-17T09:46:36.499Z,7.80
2018-05-17T09:49:02.700Z,6.00
2018-05-17T09:51:28.915Z,6.17
2018-05-17T09:53:55.206Z,6.73
2018-05-17T09:56:22.295Z,7.63
2018-05-17T09:58:48.520Z,5.40
2018-05-17T10:01:15.465Z,7.70
2018-05-17T10:03:41.746Z,6.00
2018-05-17T10:06:07.922Z,8.13
2018-05-17T10:08:34.148Z,8.90
2018-05-17T10:11:01.143Z,6.80
2018-05-17T10:13:28.417Z,8.37
2018-05-17T10:15:54.645Z,10.60
2018-05-17T10:18:20.850Z,8.13
2018-05-17T10:20:47.665Z,5.90
2018-05-17T10:23:14.658Z,9.43
2018-05-17T10:25:40.894Z,7.53
2018-05-17T10:28:07.088Z,8.83
2018-05-17T10:30:34.054Z,9.63
2018-05-17T10:33:00.279Z,8.80
2018-05-17T10:35:26.516Z,10.80
2018-05-17T10:37:52.724Z,8.87
2018-05-17T10:40:18.954Z,8.67
2018-05-17T10:42:45.146Z,8.83
2018-05-17T10:45:11.646Z,8.10
2018-05-17T10:47:38.604Z,8.00
2018-05-17T10:50:04.818Z,8.40
2018-05-17T10:52:32.513Z,7.43
2018-05-17T10:54:59.425Z,8.63
2018-05-17T10:57:25.664Z,7.53
2018-05-17T10:59:51.840Z,8.40
2018-05-17T11:02:18.033Z,10.63
2018-05-17T11:04:44.237Z,7.47
2018-05-17T11:07:10.443Z,9.90
2018-05-17T11:09:36.650Z,7.67
2018-05-17T11:12:02.865Z,9.07
2018-05-17T11:14:29.137Z,7.07
2018-05-17T11:16:55.402Z,8.50
2018-05-17T11:19:21.652Z,9.67
2018-05-17T11:21:47.848Z,9.03
2018-05-17T11:24:14.766Z,8.03
2018-05-17T11:26:41.000Z,9.67
2018-05-17T11:29:07.940Z,10.13
2018-05-17T11:31:34.125Z,9.07
2018-05-17T11:34:00.371Z,10.37
2018-05-17T11:36:26.654Z,8.70
2018-05-17T11:38:52.908Z,7.33
2018-05-17T11:41:19.188Z,8.50
2018-05-17T11:43:45.787Z,11.77
2018-05-17T11:46:12.778Z,9.53
2018-05-17T11:48:39.061Z,10.57
2018-05-17T11:51:06.079Z,9.57
2018-05-17T11:53:32.317Z,7.33
2018-05-17T11:55:58.636Z,9.27
2018-05-17T11:58:24.825Z,11.70
2018-05-17T12:00:51.780Z,10.60
2018-05-17T12:03:18.043Z,7.43
2018-05-17T12:05:44.356Z,10.50
2018-05-17T12:08:10.607Z,9.07
2018-05-17T12:10:37.533Z,10.83
2018-05-17T12:13:03.705Z,8.73
2018-05-17T12:15:29.917Z,10.43
2018-05-17T12:17:56.862Z,10.50
2018-05-17T12:20:24.531Z,7.57
2018-05-17T12:22:51.500Z,11.03
2018-05-17T12:25:17.737Z,9.37
2018-05-17T12:27:43.955Z,8.97
2018-05-17T12:30:10.973Z,10.20
2018-05-17T12:32:37.211Z,9.17
2018-05-17T12:35:03.418Z,9.37
2018-05-17T12:37:30.387Z,8.20
2018-05-17T12:39:57.772Z,8.17
2018-05-17T12:42:23.957Z,8.80
2018-05-17T12:44:50.178Z,6.90
2018-05-17T12:47:16.365Z,8.53
2018-05-17T12:49:42.561Z,9.73
2018-05-17T12:52:08.741Z,7.77
2018-05-17T12:54:35.706Z,9.37
2018-05-17T12:57:01.907Z,8.87
2018-05-17T12:59:28.122Z,8.13
2018-05-17T13:01:54.306Z,10.13
2018-05-17T13:04:21.957Z,12.03
2018-05-17T13:06:48.182Z,9.30
2018-05-17T13:09:14.381Z,8.20
2018-05-17T13:11:40.584Z,9.07
2018-05-17T13:14:07.496Z,8.27
2018-05-17T13:16:33.708Z,8.33
2018-05-17T13:18:59.942Z,7.47
2018-05-17T13:21:26.132Z,12.03
2018-05-17T13:23:53.096Z,8.03
2018-05-17T13:26:19.281Z,11.23
2018-05-17T13:28:45.575Z,8.77
2018-05-17T13:31:11.802Z,8.90
2018-05-17T13:33:38.030Z,9.97
2018-05-17T13:36:05.030Z,9.93
2018-05-17T13:38:31.220Z,9.93
2018-05-17T13:40:57.636Z,11.93
2018-05-17T13:43:23.875Z,11.53
2018-05-17T13:45:50.069Z,9.60
2018-05-17T13:48:16.278Z,11.97
2018-05-17T13:50:42.518Z,9.27
2018-05-17T13:53:08.715Z,11.10
2018-05-17T13:55:34.886Z,11.27
2018-05-17T13:58:01.095Z,14.40
2018-05-17T14:00:27.274Z,8.30
2018-05-17T14:02:53.568Z,8.43
2018-05-17T14:05:19.711Z,10.33
2018-05-17T14:07:46.053Z,10.03
2018-05-17T14:10:12.289Z,9.73
2018-05-17T14:12:38.655Z,11.77
2018-05-17T14:15:04.848Z,10.03
2018-05-17T14:17:31.078Z,12.87
2018-05-17T14:19:57.321Z,11.10
2018-05-17T14:22:23.526Z,15.50
2018-05-17T14:24:50.472Z,9.00
2018-05-17T14:27:16.726Z,9.33
2018-05-17T14:29:42.942Z,9.10
2018-05-17T14:32:10.638Z,11.63
2018-05-17T14:34:37.432Z,9.90
2018-05-17T14:37:03.672Z,10.37
2018-05-17T14:39:30.673Z,10.80
2018-05-17T14:41:56.897Z,13.43
2018-05-17T14:44:23.996Z,12.10
2018-05-17T14:46:50.157Z,11.57
2018-05-17T14:49:17.205Z,11.67
2018-05-17T14:51:43.383Z,7.47
2018-05-17T14:54:16.625Z,10.10
2018-05-17T14:56:42.808Z,9.17
2018-05-17T14:59:09.043Z,12.47
2018-05-17T15:01:36.305Z,12.70
2018-05-17T15:04:02.590Z,13.87
2018-05-17T15:06:28.807Z,11.83
2018-05-17T15:08:55.021Z,13.37
2018-05-17T15:11:21.382Z,9.57
2018-05-17T15:13:47.529Z,12.70
2018-05-17T15:16:13.923Z,8.17
2018-05-17T15:18:40.195Z,10.77
2018-05-17T15:21:06.411Z,10.43
2018-05-17T15:23:32.641Z,8.67
2018-05-17T15:25:58.893Z,10.43
2018-05-17T15:28:25.169Z,16.00
2018-05-17T15:30:52.149Z,12.80
2018-05-17T15:33:18.397Z,11.20
2018-05-17T15:35:44.635Z,9.63
2018-05-17T15:38:10.882Z,11.53
2018-05-17T15:40:37.135Z,11.60
2018-05-17T15:43:03.313Z,11.50
2018-05-17T15:45:29.549Z,8.20
2018-05-17T15:47:55.789Z,16.33
2018-05-17T15:50:22.006Z,13.13
2018-05-17T15:52:48.235Z,10.57
2018-05-17T15:55:15.174Z,11.30
2018-05-17T15:57:41.407Z,10.03
2018-05-17T16:00:07.561Z,9.67
2018-05-17T16:02:33.763Z,13.73
2018-05-17T16:05:00.914Z,15.27
2018-05-17T16:07:27.429Z,13.73
2018-05-17T16:09:53.641Z,10.27
2018-05-17T16:12:20.452Z,10.20
2018-05-17T16:14:47.413Z,10.93
2018-05-17T16:17:14.350Z,11.73
2018-05-17T16:19:40.564Z,11.00
2018-05-17T16:22:06.746Z,14.13
2018-05-17T16:24:32.978Z,12.20
2018-05-17T16:26:59.192Z,12.27
2018-05-17T16:29:25.375Z,15.07
2018-05-17T16:31:51.586Z,15.47
2018-05-17T16:34:17.804Z,11.33
2018-05-17T16:36:44.770Z,11.77
2018-05-17T16:39:11.002Z,15.27
2018-05-17T16:41:37.990Z,11.37
2018-05-17T16:44:04.248Z,11.20
2018-05-17T16:46:30.467Z,10.97
2018-05-17T16:48:56.705Z,13.17
2018-05-17T16:51:23.678Z,13.87
2018-05-17T16:53:49.857Z,14.00
2018-05-17T16:56:22.973Z,16.00
2018-05-17T16:58:49.205Z,15.27
2018-05-17T17:01:15.346Z,13.67
2018-05-17T17:03:41.533Z,14.87
2018-05-17T17:06:08.667Z,14.23
2018-05-17T17:08:34.875Z,16.10
2018-05-17T17:11:01.160Z,15.00
2018-05-17T17:13:27.383Z,16.47
2018-05-17T17:15:54.327Z,11.00
2018-05-17T17:18:21.277Z,13.60
2018-05-17T17:20:47.517Z,13.40
2018-05-17T17:23:14.465Z,15.83
2018-05-17T17:25:41.431Z,14.90
2018-05-17T17:28:08.389Z,15.60
2018-05-17T17:30:34.604Z,13.27
2018-05-17T17:33:00.815Z,13.57
2018-05-17T17:35:28.563Z,13.13
2018-05-17T17:37:54.834Z,10.67
2018-05-17T17:40:21.122Z,14.60
2018-05-17T17:42:47.382Z,13.93
2018-05-17T17:45:14.995Z,12.47
2018-05-17T17:47:41.284Z,10.80
2018-05-17T17:50:07.545Z,12.20
2018-05-17T17:52:34.615Z,16.37
2018-05-17T17:55:00.912Z,13.70
2018-05-17T17:57:27.117Z,14.47
2018-05-17T17:59:55.403Z,11.77
2018-05-17T18:02:22.270Z,13.90
2018-05-17T18:04:48.542Z,13.40
2018-05-17T18:07:15.551Z,12.40
2018-05-17T18:09:42.642Z,13.27
2018-05-17T18:12:10.809Z,11.47
2018-05-17T18:14:37.971Z,17.53
2018-05-17T18:17:04.939Z,14.23
2018-05-17T18:19:31.889Z,12.17
2018-05-17T18:21:58.805Z,15.03
2018-05-17T18:24:25.010Z,11.30
2018-05-17T18:26:51.391Z,12.17
2018-05-17T18:29:18.333Z,11.43
2018-05-17T18:31:44.514Z,13.43
2018-05-17T18:34:10.693Z,12.23
2018-05-17T18:36:36.871Z,13.17
2018-05-17T18:39:03.099Z,14.47
2018-05-17T18:41:29.342Z,9.93
2018-05-17T18:43:55.593Z,13.17
2018-05-17T18:46:21.803Z,12.23
2018-05-17T18:48:48.063Z,11.73
2018-05-17T18:51:14.351Z,15.03
2018-05-17T18:53:40.506Z,11.80
2018-05-17T18:56:06.775Z,11.33
2018-05-17T18:58:32.983Z,10.50
2018-05-17T19:00:59.279Z,12.80
2018-05-17T19:03:25.736Z,9.63
2018-05-17T19:05:52.032Z,11.57
2018-05-17T19:08:18.345Z,11.97
2018-05-17T19:10:44.603Z,12.77
2018-05-17T19:13:10.831Z,14.47
2018-05-17T19:15:37.636Z,12.43
2018-05-17T19:18:03.889Z,9.33
2018-05-17T19:20:37.010Z,10.77
2018-05-17T19:23:04.553Z,14.67
2018-05-17T19:25:30.889Z,13.43
2018-05-17T19:27:57.115Z,13.80
2018-05-17T19:30:23.372Z,11.60
2018-05-17T19:32:49.739Z,12.37
2018-05-17T19:35:17.121Z,9.20
2018-05-17T19:37:44.079Z,11.10
2018-05-17T19:40:10.375Z,11.30
2018-05-17T19:42:36.666Z,11.40
2018-05-17T19:45:02.954Z,11.77
2018-05-17T19:47:29.226Z,13.90
2018-05-17T19:49:55.454Z,11.30
2018-05-17T19:52:21.781Z,10.63
2018-05-17T19:54:48.006Z,14.50
2018-05-17T19:57:14.938Z,12.43
2018-05-17T19:59:41.331Z,10.23
2018-05-17T20:02:07.629Z,10.57
2018-05-17T20:04:34.012Z,12.73
2018-05-17T20:07:00.237Z,14.93
2018-05-17T20:09:26.471Z,11.87
2018-05-17T20:11:53.878Z,10.10
2018-05-17T20:14:20.152Z,12.40
2018-05-17T20:16:47.796Z,12.00
2018-05-17T20:19:15.270Z,11.30
2018-05-17T20:21:41.702Z,15.40
2018-05-17T20:24:08.002Z,10.90
2018-05-17T20:26:34.268Z,10.23
2018-05-17T20:29:00.497Z,10.30
2018-05-17T20:31:26.717Z,9.87
2018-05-17T20:33:52.971Z,11.87
2018-05-17T20:36:19.280Z,13.37
2018-05-17T20:38:45.750Z,11.93
2018-05-17T20:41:12.043Z,9.33
2018-05-17T20:43:38.311Z,11.13
2018-05-17T20:46:04.569Z,11.10
2018-05-17T20:48:30.862Z,9.27
2018-05-17T20:50:57.137Z,12.83
2018-05-17T20:53:23.428Z,14.73
2018-05-17T20:55:49.647Z,11.90
2018-05-17T20:58:15.880Z,12.97
2018-05-17T21:00:42.158Z,10.43
2018-05-17T21:03:08.447Z,12.27
2018-05-17T21:05:34.878Z,12.03
2018-05-17T21:08:01.117Z,11.47
2018-05-17T21:10:27.473Z,9.70
2018-05-17T21:12:54.358Z,10.83
2018-05-17T21:15:20.583Z,8.10
2018-05-17T21:17:46.846Z,13.23
2018-05-17T21:20:13.843Z,13.47
2018-05-17T21:22:40.930Z,10.13
2018-05-17T21:25:07.117Z,12.27
2018-05-17T21:27:33.340Z,11.17
2018-05-17T21:29:59.544Z,12.20
2018-05-17T21:32:26.507Z,11.97
2018-05-17T21:34:52.709Z,12.07
2018-05-17T21:37:18.962Z,11.60
2018-05-17T21:39:45.225Z,9.43
2018-05-17T21:42:12.172Z,10.03
2018-05-17T21:44:38.465Z,12.20
2018-05-17T21:47:04.689Z,9.33
2018-05-17T21:49:30.961Z,8.87
2018-05-17T21:51:57.213Z,11.57
2018-05-17T21:54:24.183Z,10.10
2018-05-17T21:56:51.180Z,9.77
2018-05-17T21:59:17.375Z,12.07
2018-05-17T22:01:44.262Z,11.73
2018-05-17T22:04:10.498Z,9.83
2018-05-17T22:06:36.814Z,9.77
2018-05-17T22:09:04.507Z,12.43
2018-05-17T22:11:30.739Z,8.90
2018-05-17T22:13:56.946Z,13.20
2018-05-17T22:16:23.157Z,10.53
2018-05-17T22:18:49.385Z,13.53
2018-05-17T22:21:16.311Z,11.97
2018-05-17T22:23:42.549Z,10.03
2018-05-17T22:26:08.759Z,9.63
2018-05-17T22:28:34.910Z,10.43
2018-05-17T22:31:01.147Z,11.70
2018-05-17T22:33:27.334Z,9.73
2018-05-17T22:35:53.617Z,8.13
2018-05-17T22:38:19.768Z,12.60
2018-05-17T22:40:45.976Z,11.23
2018-05-17T22:43:12.134Z,8.53
2018-05-17T22:45:38.377Z,11.27
2018-05-17T22:48:04.666Z,11.80
2018-05-17T22:50:30.884Z,10.30
2018-05-17T22:52:57.089Z,13.90
2018-05-17T22:55:23.498Z,10.33
2018-05-17T23:00:59.027Z,8.80
2018-05-17T23:03:25.246Z,10.13
2018-05-17T23:05:51.436Z,8.73
2018-05-17T23:08:18.353Z,10.73
2018-05-17T23:10:44.564Z,9.70
2018-05-17T23:13:10.773Z,12.27
2018-05-17T23:15:36.949Z,7.23
2018-05-17T23:18:03.118Z,9.87
2018-05-17T23:20:30.102Z,7.87
2018-05-17T23:22:56.356Z,7.53
2018-05-17T23:25:22.566Z,10.27
2018-05-17T23:27:48.816Z,8.83
2018-05-17T23:30:15.058Z,10.17
2018-05-17T23:32:41.254Z,8.90
2018-05-17T23:35:07.448Z,8.57
2018-05-17T23:37:33.628Z,8.37
2018-05-17T23:43:10.621Z,9.50
2018-05-17T23:45:36.838Z,8.97
2018-05-17T23:48:03.784Z,11.80
2018-05-17T23:50:30.966Z,9.20
2018-05-17T23:52:57.245Z,8.27
2018-05-17T23:55:23.469Z,11.47
2018-05-17T23:57:49.688Z,10.97
